Time;durP1;ratioP1;P1;durP2;ratioP2;P2;SDS_P1;SDS_P2;PMS_P1;PMS_P2;Temp;Humidity;BMP_temperature;BMP_pressure;BME280_temperature;BME280_humidity;BME280_pressure;Samples;Min_cycle;Max_cycle;Signal;HPM_P1;HPM_P2
2023/07/09 00:02:12;;;;;;;4.03;3.63;;;;;;;22.64;70.60;98385.91;4995810;28;20195;-78
2023/07/09 00:04:39;;;;;;;4.85;3.55;;;;;;;22.68;69.35;98379.66;4994835;28;20203;-78
2023/07/09 00:07:06;;;;;;;5.55;4.20;;;;;;;22.68;68.70;98376.94;4997194;28;20215;-78
2023/07/09 00:09:35;;;;;;;8.85;4.68;;;;;;;22.61;69.50;98383.81;4994734;28;20295;-78
2023/07/09 00:12:02;;;;;;;5.72;4.07;;;;;;;22.56;69.42;98381.16;4996413;28;20215;-78
2023/07/09 00:14:28;;;;;;;5.10;4.40;;;;;;;22.50;70.30;98382.28;4995688;28;20207;-78
2023/07/09 00:16:55;;;;;;;5.10;3.60;;;;;;;22.45;70.41;98385.03;4997905;28;20238;-78
2023/07/09 00:19:24;;;;;;;6.50;4.22;;;;;;;22.52;69.47;98385.53;4998818;28;20203;-78
2023/07/09 00:21:54;;;;;;;6.38;4.20;;;;;;;22.46;70.89;98381.25;4997064;28;20207;-78
2023/07/09 00:24:21;;;;;;;7.07;3.83;;;;;;;22.41;70.65;98387.50;4988356;28;20199;-78
2023/07/09 00:26:48;;;;;;;5.47;3.92;;;;;;;22.38;70.62;98390.78;4998799;28;20225;-78
2023/07/09 00:29:18;;;;;;;5.25;4.13;;;;;;;22.37;70.75;98382.94;4999000;28;20211;-78
2023/07/09 00:31:44;;;;;;;5.93;3.92;;;;;;;22.34;70.53;98391.66;4998385;28;20314;-78
2023/07/09 00:34:14;;;;;;;6.90;4.50;;;;;;;22.35;70.80;98388.66;4999626;28;20218;-77
2023/07/09 00:36:43;;;;;;;6.07;4.05;;;;;;;22.29;71.73;98386.28;4998513;28;20238;-78
2023/07/09 00:39:23;;;;;;;5.93;4.47;;;;;;;22.34;73.49;98384.31;5009694;28;20290;-78
2023/07/09 00:41:51;;;;;;;5.75;4.53;;;;;;;22.37;72.16;98388.34;4997553;28;20203;-77
2023/07/09 00:44:20;;;;;;;5.50;5.00;;;;;;;22.38;71.82;98385.34;4998795;28;20211;-78
2023/07/09 00:46:47;;;;;;;4.68;4.13;;;;;;;22.37;71.85;98394.59;4998586;28;20223;-78
2023/07/09 00:49:17;;;;;;;6.25;4.05;;;;;;;22.32;72.14;98396.53;4998144;28;20567;-78
2023/07/09 00:51:47;;;;;;;5.25;4.65;;;;;;;22.29;72.17;98391.69;5000952;28;20214;-78
2023/07/09 00:54:32;;;;;;;6.43;4.65;;;;;;;22.20;72.99;98396.91;5002637;28;20674;-78
2023/07/09 00:57:03;;;;;;;5.60;4.50;;;;;;;22.24;73.67;98395.25;5001721;28;20234;-78
2023/07/09 00:59:32;;;;;;;6.85;5.05;;;;;;;22.25;73.22;98406.91;5002179;28;20518;-78
2023/07/09 01:02:00;;;;;;;5.25;4.68;;;;;;;22.28;73.16;98404.44;5002024;28;20258;-78
2023/07/09 01:04:27;;;;;;;5.85;4.90;;;;;;;22.24;73.11;98399.88;5002900;28;20203;-78
2023/07/09 01:06:56;;;;;;;7.40;5.10;;;;;;;22.18;74.18;98403.69;5002074;28;20234;-79
2023/07/09 01:09:24;;;;;;;7.10;4.97;;;;;;;22.16;74.12;98403.19;5002266;28;20296;-78
2023/07/09 01:11:51;;;;;;;6.23;4.63;;;;;;;22.11;73.37;98405.94;5002311;28;20728;-78
2023/07/09 01:14:21;;;;;;;6.68;5.07;;;;;;;22.04;74.66;98411.69;5001473;28;20571;-78
2023/07/09 01:16:57;;;;;;;10.70;5.50;;;;;;;21.96;75.83;98414.19;4983635;28;20223;-78
2023/07/09 01:19:29;;;;;;;5.67;4.70;;;;;;;21.99;75.22;98408.22;4995360;28;20206;-78
2023/07/09 01:22:03;;;;;;;5.30;4.80;;;;;;;21.91;75.89;98409.63;5000853;28;20204;-78
2023/07/09 01:24:54;;;;;;;7.90;4.77;;;;;;;21.84;76.67;98413.75;5003200;28;20206;-78
2023/07/09 01:27:38;;;;;;;5.20;4.40;;;;;;;21.89;77.44;98411.78;5002146;28;20233;-78
2023/07/09 01:30:11;;;;;;;5.50;4.53;;;;;;;21.90;75.93;98409.91;5002286;28;20192;-78
2023/07/09 01:32:40;;;;;;;6.20;4.45;;;;;;;21.86;76.60;98398.84;5002306;28;20222;-78
2023/07/09 01:35:07;;;;;;;6.90;4.72;;;;;;;21.87;77.24;98402.34;5001354;28;20245;-78
2023/07/09 01:37:37;;;;;;;7.27;4.27;;;;;;;21.80;77.21;98404.56;5001778;28;20237;-78
2023/07/09 01:40:05;;;;;;;7.07;4.30;;;;;;;21.75;77.73;98404.63;5001707;28;20570;-78
2023/07/09 01:42:33;;;;;;;5.27;4.10;;;;;;;21.69;77.98;98405.69;5001159;28;20199;-78
2023/07/09 01:45:01;;;;;;;8.93;4.93;;;;;;;21.63;78.50;98401.41;5001943;28;20211;-78
2023/07/09 01:47:27;;;;;;;6.60;4.63;;;;;;;21.62;78.44;98399.81;5000749;28;20226;-78
2023/07/09 01:49:56;;;;;;;4.53;4.10;;;;;;;21.64;78.08;98394.91;5000332;28;20200;-78
2023/07/09 01:52:29;;;;;;;5.95;4.10;;;;;;;21.61;78.07;98409.03;5001227;28;20278;-78
2023/07/09 01:54:56;;;;;;;5.30;4.23;;;;;;;21.62;78.37;98406.00;5000568;28;20198;-78
2023/07/09 01:57:23;;;;;;;5.80;4.17;;;;;;;21.60;78.86;98404.66;5001228;28;20235;-78
2023/07/09 01:59:55;;;;;;;8.90;4.50;;;;;;;21.59;78.67;98405.78;5000170;28;20203;-78
2023/07/09 02:02:25;;;;;;;5.20;4.20;;;;;;;21.57;77.97;98405.25;5001047;28;20191;-78
2023/07/09 02:04:56;;;;;;;5.63;4.10;;;;;;;21.54;77.62;98409.34;5001705;28;20215;-78
2023/07/09 02:07:25;;;;;;;5.20;3.73;;;;;;;21.51;78.71;98417.19;5001969;28;20235;-78
2023/07/09 02:09:52;;;;;;;5.57;3.80;;;;;;;21.51;78.07;98420.69;5001429;28;20565;-78
2023/07/09 02:12:19;;;;;;;5.63;3.80;;;;;;;21.38;78.99;98415.13;5000874;28;20223;-78
2023/07/09 02:14:46;;;;;;;6.27;3.80;;;;;;;21.36;78.67;98407.28;5000578;28;20217;-78
2023/07/09 02:17:15;;;;;;;6.20;3.90;;;;;;;21.31;78.74;98418.13;5001172;28;20227;-78
2023/07/09 02:19:41;;;;;;;6.17;3.73;;;;;;;21.26;78.86;98409.22;5001367;28;20217;-78
2023/07/09 02:22:09;;;;;;;3.90;3.37;;;;;;;21.22;80.08;98410.88;5001863;28;20203;-78
2023/07/09 02:24:36;;;;;;;4.27;3.87;;;;;;;21.22;80.50;98400.03;5002203;28;20227;-78
2023/07/09 02:27:05;;;;;;;4.87;3.80;;;;;;;21.23;80.81;98413.28;5001411;28;20736;-78
2023/07/09 02:29:32;;;;;;;5.10;3.70;;;;;;;21.25;80.50;98408.41;5000781;28;20211;-78
2023/07/09 02:32:00;;;;;;;4.53;3.67;;;;;;;21.26;79.95;98414.63;4997767;28;20274;-77
2023/07/09 02:34:28;;;;;;;4.37;3.70;;;;;;;21.23;80.15;98413.28;4996178;28;20550;-77
2023/07/09 02:36:56;;;;;;;4.00;3.60;;;;;;;21.22;80.52;98410.88;4995863;28;20231;-76
2023/07/09 02:39:24;;;;;;;5.50;3.87;;;;;;;21.23;80.30;98417.88;4996229;28;20214;-76
2023/07/09 02:41:50;;;;;;;5.27;3.60;;;;;;;21.21;80.41;98422.78;4996457;28;20229;-77
2023/07/09 02:44:18;;;;;;;3.97;3.53;;;;;;;21.23;80.78;98417.88;4996155;28;20214;-77
2023/07/09 02:46:44;;;;;;;4.93;3.70;;;;;;;21.18;80.92;98421.44;4995938;28;20224;-77
2023/07/09 02:49:13;;;;;;;5.33;3.70;;;;;;;21.17;81.33;98416.28;4996074;28;20214;-77
2023/07/09 02:51:39;;;;;;;5.40;4.13;;;;;;;21.14;82.30;98425.78;4995975;28;20237;-77
2023/07/09 02:54:06;;;;;;;4.73;3.67;;;;;;;21.14;82.12;98427.66;4995464;28;20211;-77
2023/07/09 02:56:33;;;;;;;5.10;3.70;;;;;;;21.07;82.32;98430.66;4995608;28;20231;-77
2023/07/09 02:59:00;;;;;;;4.60;3.60;;;;;;;21.01;83.42;98430.97;4995880;28;20195;-76
2023/07/09 03:01:27;;;;;;;6.27;3.87;;;;;;;20.96;83.55;98431.81;4995832;28;20577;-77
2023/07/09 03:03:56;;;;;;;6.87;4.03;;;;;;;20.87;84.52;98438.00;4995720;28;20213;-76
2023/07/09 03:06:24;;;;;;;4.97;3.60;;;;;;;20.88;83.95;98426.94;4995612;28;20238;-77
2023/07/09 03:08:52;;;;;;;4.73;3.70;;;;;;;20.85;85.24;98437.47;4995559;28;20207;-77
2023/07/09 03:11:20;;;;;;;5.47;3.70;;;;;;;20.83;84.76;98434.22;4995477;28;20239;-76
2023/07/09 03:13:47;;;;;;;5.90;3.97;;;;;;;20.82;84.45;98436.16;4995465;28;20214;-76
2023/07/09 03:16:15;;;;;;;4.40;3.80;;;;;;;20.76;85.66;98425.63;4996195;28;20234;-76
2023/07/09 03:18:41;;;;;;;6.13;4.00;;;;;;;20.80;84.78;98430.19;4995412;28;20599;-76
2023/07/09 03:21:07;;;;;;;5.63;3.70;;;;;;;20.84;83.90;98436.66;4995409;28;20214;-76
2023/07/09 03:23:34;;;;;;;6.93;4.10;;;;;;;20.91;83.73;98439.09;4995459;28;20219;-76
2023/07/09 03:26:00;;;;;;;6.43;3.90;;;;;;;20.92;83.48;98441.53;4995720;28;20231;-76
2023/07/09 03:28:27;;;;;;;5.00;3.87;;;;;;;20.94;83.69;98436.66;4995314;28;20215;-76
2023/07/09 03:30:55;;;;;;;4.00;3.67;;;;;;;20.91;83.64;98431.00;4995203;28;20208;-76
2023/07/09 03:33:22;;;;;;;6.60;4.23;;;;;;;20.87;84.17;98432.59;4995729;28;20554;-76
2023/07/09 03:35:49;;;;;;;5.87;4.00;;;;;;;20.83;84.83;98435.06;4995170;28;20208;-76
2023/07/09 03:38:15;;;;;;;5.47;3.97;;;;;;;20.81;84.84;98437.22;4994894;28;20211;-76
2023/07/09 03:40:42;;;;;;;7.03;3.77;;;;;;;20.80;85.46;98440.22;4994692;28;20212;-76
2023/07/09 03:43:10;;;;;;;5.67;4.20;;;;;;;20.75;85.68;98448.34;4994945;28;20203;-76
2023/07/09 03:45:38;;;;;;;5.17;3.77;;;;;;;20.79;85.49;98452.09;4995182;28;20233;-76
2023/07/09 03:48:06;;;;;;;5.10;3.80;;;;;;;20.82;84.55;98448.84;4994844;28;20207;-76
2023/07/09 03:50:33;;;;;;;6.00;3.73;;;;;;;20.85;85.38;98451.00;4994816;28;20207;-76
2023/07/09 03:53:00;;;;;;;8.30;4.17;;;;;;;20.83;84.62;98448.56;4994676;28;20227;-76
2023/07/09 03:55:26;;;;;;;7.23;3.53;;;;;;;20.84;84.67;98450.19;4994681;28;20215;-76
2023/07/09 03:57:56;;;;;;;4.80;3.90;;;;;;;20.80;85.39;98451.03;4994560;28;20235;-76
2023/07/09 04:00:24;;;;;;;4.93;3.90;;;;;;;20.79;85.25;98455.59;4994663;28;20207;-77
2023/07/09 04:02:52;;;;;;;4.47;3.83;;;;;;;20.80;85.91;98456.41;4994673;28;20294;-76
2023/07/09 04:05:19;;;;;;;4.90;3.77;;;;;;;20.80;85.17;98451.03;4994568;28;20287;-76
2023/07/09 04:07:46;;;;;;;3.90;3.60;;;;;;;20.80;85.17;98451.03;4994077;28;20599;-76
2023/07/09 04:10:12;;;;;;;4.70;4.03;;;;;;;20.83;85.39;98453.16;4994467;28;20226;-76
2023/07/09 04:12:38;;;;;;;4.50;4.10;;;;;;;20.83;84.98;98448.56;4994396;28;20257;-76
2023/07/09 04:15:06;;;;;;;5.23;4.20;;;;;;;20.85;85.05;98443.69;4994439;28;20207;-76
2023/07/09 04:17:33;;;;;;;7.97;3.90;;;;;;;20.85;84.97;98453.69;4994033;28;20266;-76
2023/07/09 04:19:59;;;;;;;6.37;4.13;;;;;;;20.88;84.21;98456.66;4994398;28;20206;-76
2023/07/09 04:22:26;;;;;;;5.00;4.00;;;;;;;20.90;84.54;98453.69;4994205;28;20707;-76
2023/07/09 04:24:52;;;;;;;5.90;4.10;;;;;;;20.90;84.28;98454.53;4994240;28;20290;-76
2023/07/09 04:27:20;;;;;;;5.83;4.03;;;;;;;20.89;84.66;98460.97;4993876;28;20226;-76
2023/07/09 04:29:46;;;;;;;4.40;4.00;;;;;;;20.85;84.68;98451.00;4994092;28;20203;-76
2023/07/09 04:32:15;;;;;;;7.90;4.10;;;;;;;20.87;84.51;98459.63;4994006;28;20223;-76
2023/07/09 04:34:42;;;;;;;5.47;3.93;;;;;;;20.86;84.83;98455.31;4994013;28;20211;-76
2023/07/09 04:37:11;;;;;;;9.57;4.60;;;;;;;20.93;84.33;98451.25;4994031;28;20234;-76
2023/07/09 04:39:38;;;;;;;5.00;4.03;;;;;;;20.96;84.41;98458.00;4993738;28;20664;-76
2023/07/09 04:42:05;;;;;;;7.00;3.97;;;;;;;21.09;83.61;98457.44;4994283;28;20206;-76
2023/07/09 04:44:31;;;;;;;5.67;4.23;;;;;;;21.06;83.75;98458.78;4994064;28;20203;-76
2023/07/09 04:46:57;;;;;;;5.23;4.07;;;;;;;21.08;83.63;98467.44;4994028;28;20329;-76
2023/07/09 04:49:24;;;;;;;6.23;3.90;;;;;;;21.09;83.32;98469.06;4993931;28;20230;-76
2023/07/09 04:51:50;;;;;;;4.90;4.20;;;;;;;21.19;82.60;98462.78;4993958;28;20223;-76
2023/07/09 04:54:17;;;;;;;5.63;3.90;;;;;;;21.18;82.58;98463.88;4994046;28;20210;-76
2023/07/09 04:56:44;;;;;;;3.97;3.57;;;;;;;21.25;82.72;98464.41;4993789;28;20235;-76
2023/07/09 04:59:12;;;;;;;4.63;4.00;;;;;;;21.30;82.06;98467.09;4994308;28;20271;-76
2023/07/09 05:01:38;;;;;;;4.53;4.13;;;;;;;21.36;82.29;98472.19;4993993;28;20207;-76
2023/07/09 05:04:05;;;;;;;5.30;4.10;;;;;;;21.37;81.58;98467.56;4993927;28;20700;-76
2023/07/09 05:06:31;;;;;;;5.13;4.00;;;;;;;21.49;81.26;98471.59;4993503;28;20718;-76
2023/07/09 05:08:57;;;;;;;5.50;4.17;;;;;;;21.56;81.44;98472.06;4993889;28;20214;-76
2023/07/09 05:11:24;;;;;;;5.20;3.70;;;;;;;21.60;80.95;98475.03;4993806;28;20219;-76
2023/07/09 05:13:50;;;;;;;5.00;3.83;;;;;;;21.98;78.89;98479.72;4994127;28;20211;-76
2023/07/09 05:16:17;;;;;;;6.07;4.27;;;;;;;22.24;77.27;98478.44;4993738;28;20270;-76
2023/07/09 05:18:45;;;;;;;5.57;3.90;;;;;;;22.60;75.55;98483.25;4993505;28;20676;-76
2023/07/09 05:21:12;;;;;;;5.50;3.63;;;;;;;22.81;73.41;98478.44;4993770;28;20207;-76
2023/07/09 05:23:38;;;;;;;5.40;3.80;;;;;;;23.01;72.46;98480.97;4993824;28;20207;-76
2023/07/09 05:26:05;;;;;;;4.95;4.45;;;;;;;23.47;69.53;98484.75;4993757;28;20740;-76
2023/07/09 05:28:32;;;;;;;5.30;3.63;;;;;;;24.01;66.75;98485.13;4994133;28;20211;-76
2023/07/09 05:30:59;;;;;;;5.45;4.10;;;;;;;23.89;66.99;98484.72;4993742;28;20211;-76
2023/07/09 05:33:25;;;;;;;5.35;3.95;;;;;;;24.24;65.17;98481.50;4993639;28;20227;-76
2023/07/09 05:35:51;;;;;;;4.45;3.83;;;;;;;23.85;68.25;98487.22;4993606;28;20235;-76
2023/07/09 05:38:18;;;;;;;4.60;4.10;;;;;;;23.59;68.15;98485.94;4996020;28;20231;-76
2023/07/09 05:40:44;;;;;;;4.53;3.80;;;;;;;23.47;68.81;98479.34;4997221;28;20214;-76
2023/07/09 05:43:11;;;;;;;4.45;4.03;;;;;;;23.61;68.82;98494.59;4997147;28;20204;-76
2023/07/09 05:45:41;;;;;;;5.22;4.13;;;;;;;23.65;67.55;98492.13;4997045;28;20213;-76
2023/07/09 05:48:07;;;;;;;4.20;3.80;;;;;;;23.43;69.44;98489.16;4996878;28;20574;-76
2023/07/09 05:50:35;;;;;;;5.53;4.57;;;;;;;23.37;69.44;98493.00;4997045;28;20217;-76
2023/07/09 05:53:02;;;;;;;6.97;3.85;;;;;;;23.42;70.78;98487.53;4997153;28;20219;-76
2023/07/09 05:55:28;;;;;;;5.18;4.03;;;;;;;23.28;70.92;98492.03;4996920;28;20667;-76
2023/07/09 05:57:55;;;;;;;4.95;3.90;;;;;;;23.34;70.76;98496.31;4996614;28;20607;-76
2023/07/09 06:00:21;;;;;;;5.88;4.13;;;;;;;23.41;71.63;98485.91;4996874;28;20207;-76
2023/07/09 06:02:47;;;;;;;5.03;4.18;;;;;;;23.44;70.18;98493.47;4996939;28;20219;-76
2023/07/09 06:05:15;;;;;;;5.78;3.90;;;;;;;23.46;69.98;98493.97;4997080;28;20222;-76
2023/07/09 06:07:41;;;;;;;4.60;3.92;;;;;;;23.61;69.51;98493.81;4996675;28;20586;-76
2023/07/09 06:10:09;;;;;;;4.93;4.05;;;;;;;23.77;68.73;98495.19;4996797;28;20294;-77
2023/07/09 06:12:36;;;;;;;8.75;4.22;;;;;;;23.69;69.90;98490.44;4996733;28;20227;-76
2023/07/09 06:15:02;;;;;;;5.70;4.05;;;;;;;23.79;69.21;98498.44;4996725;28;20294;-77
2023/07/09 06:17:29;;;;;;;6.55;3.92;;;;;;;23.99;67.69;98500.88;4996256;28;20231;-77
2023/07/09 06:19:55;;;;;;;5.55;4.47;;;;;;;23.88;68.00;98496.69;4996571;28;20203;-76
2023/07/09 06:22:21;;;;;;;4.93;4.10;;;;;;;23.87;68.25;98500.47;4996696;28;20203;-76
2023/07/09 06:24:48;;;;;;;6.65;4.53;;;;;;;23.86;68.28;98504.28;4996828;28;20203;-76
2023/07/09 06:27:14;;;;;;;8.88;4.80;;;;;;;23.84;70.29;98506.50;4996183;28;20610;-76
2023/07/09 06:29:40;;;;;;;7.03;4.10;;;;;;;23.97;68.44;98508.53;4996391;28;20207;-77
2023/07/09 06:32:07;;;;;;;6.35;4.20;;;;;;;24.09;70.23;98512.41;4996283;28;20235;-77
2023/07/09 06:34:33;;;;;;;4.68;4.05;;;;;;;24.07;68.19;98511.09;4996702;28;20215;-77
2023/07/09 06:37:00;;;;;;;5.20;4.03;;;;;;;24.04;68.17;98506.25;4996222;28;20223;-76
2023/07/09 06:39:26;;;;;;;6.88;4.43;;;;;;;24.42;66.90;98502.38;4995909;28;20215;-77
2023/07/09 06:41:53;;;;;;;4.45;4.05;;;;;;;24.42;67.60;98505.09;4996431;28;20211;-76
2023/07/09 06:44:19;;;;;;;4.90;4.38;;;;;;;24.37;66.62;98503.25;4996026;28;20685;-76
2023/07/09 06:46:46;;;;;;;5.65;4.22;;;;;;;24.39;68.35;98502.97;4996046;28;20231;-74
2023/07/09 06:49:12;;;;;;;7.03;4.50;;;;;;;24.52;67.16;98502.22;4995842;28;20213;-76
2023/07/09 06:51:38;;;;;;;5.70;4.53;;;;;;;24.56;66.01;98503.25;4995837;28;20211;-76
2023/07/09 06:54:06;;;;;;;5.18;4.68;;;;;;;24.59;65.92;98505.34;4995687;28;20233;-76
2023/07/09 06:56:32;;;;;;;5.13;4.60;;;;;;;24.62;65.96;98510.22;4995782;28;20234;-76
2023/07/09 06:58:59;;;;;;;7.97;4.70;;;;;;;24.75;65.39;98499.38;4995901;28;20206;-76
2023/07/09 07:01:25;;;;;;;5.95;4.53;;;;;;;25.03;63.87;98508.38;4995746;28;20207;-77
2023/07/09 07:03:52;;;;;;;5.05;4.57;;;;;;;24.98;63.69;98506.59;4995853;28;20204;-77
2023/07/09 07:06:18;;;;;;;5.38;4.80;;;;;;;24.83;63.60;98501.41;4995271;28;20231;-76
2023/07/09 07:08:45;;;;;;;5.32;4.45;;;;;;;24.93;63.55;98508.56;4996322;28;20208;-76
2023/07/09 07:11:11;;;;;;;5.75;4.82;;;;;;;25.11;63.27;98502.25;4996598;28;20207;-76
2023/07/09 07:13:40;;;;;;;6.80;4.60;;;;;;;25.21;63.57;98505.59;4995324;28;20227;-76
2023/07/09 07:16:10;;;;;;;5.32;4.78;;;;;;;25.37;63.22;98506.13;4995410;28;20231;-76
2023/07/09 07:18:36;;;;;;;8.35;6.65;;;;;;;25.54;61.80;98501.66;4995341;28;20206;-76
2023/07/09 07:21:04;;;;;;;5.88;5.38;;;;;;;25.91;60.33;98503.31;4995155;28;20216;-76
2023/07/09 07:23:31;;;;;;;7.50;4.43;;;;;;;25.96;59.30;98497.78;4995295;28;20211;-76
2023/07/09 07:25:58;;;;;;;5.65;4.57;;;;;;;25.99;59.28;98497.97;4994984;28;20230;-76
2023/07/09 07:28:24;;;;;;;5.80;4.60;;;;;;;26.14;58.89;98496.81;4995205;28;20215;-76
2023/07/09 07:31:08;;;;;;;6.10;4.55;;;;;;;26.28;59.75;98503.78;4994827;28;20214;-76
2023/07/09 07:33:35;;;;;;;4.38;3.97;;;;;;;26.30;58.96;98500.78;4995145;28;20215;-76
2023/07/09 07:36:02;;;;;;;4.90;4.35;;;;;;;26.40;57.62;98501.34;4994483;28;20733;-76
2023/07/09 07:38:28;;;;;;;4.82;4.35;;;;;;;26.51;57.31;98499.16;4994499;28;20211;-76
2023/07/09 07:40:54;;;;;;;5.05;4.38;;;;;;;26.64;56.88;98492.88;4994758;28;20670;-76
2023/07/09 07:43:21;;;;;;;6.00;4.53;;;;;;;26.70;56.66;98497.06;4994928;28;20207;-76
2023/07/09 07:45:48;;;;;;;6.40;4.38;;;;;;;26.86;56.59;98496.34;4994376;28;20658;-76
2023/07/09 07:48:15;;;;;;;5.28;3.95;;;;;;;26.97;55.46;98491.44;4994741;28;20207;-76
2023/07/09 07:50:41;;;;;;;4.93;4.35;;;;;;;26.74;56.71;98492.59;4994455;28;20218;-76
2023/07/09 07:53:09;;;;;;;5.18;4.30;;;;;;;26.83;55.75;98490.72;4994762;28;20227;-76
2023/07/09 07:55:36;;;;;;;7.43;5.28;;;;;;;26.90;56.09;98482.88;4994448;28;20306;-76
2023/07/09 07:58:03;;;;;;;6.63;5.63;;;;;;;27.02;55.37;98486.66;4994223;28;20219;-76
2023/07/09 08:00:30;;;;;;;5.50;4.53;;;;;;;27.20;54.19;98479.34;4993933;28;20214;-76
2023/07/09 08:02:57;;;;;;;7.68;4.35;;;;;;;27.38;54.44;98481.00;4994427;28;20207;-76
2023/07/09 08:05:24;;;;;;;5.80;4.00;;;;;;;27.39;53.51;98481.84;4994808;28;20203;-76
2023/07/09 08:07:51;;;;;;;6.25;4.35;;;;;;;27.70;52.70;98475.13;4994322;28;20231;-76
2023/07/09 08:10:18;;;;;;;7.30;5.07;;;;;;;27.71;53.00;98476.75;4994265;28;20671;-76
2023/07/09 08:12:44;;;;;;;4.80;4.18;;;;;;;27.75;51.94;98480.44;4994393;28;20233;-76
2023/07/09 08:15:11;;;;;;;5.72;4.68;;;;;;;27.81;52.97;98476.44;4994506;28;20207;-76
2023/07/09 08:17:37;;;;;;;5.88;4.10;;;;;;;27.98;51.59;98476.47;4994301;28;20226;-76
2023/07/09 08:20:04;;;;;;;7.65;4.50;;;;;;;28.15;49.65;98468.28;4993880;28;20618;-76
2023/07/09 08:22:30;;;;;;;5.03;4.22;;;;;;;27.88;49.79;98482.25;4994441;28;20203;-76
2023/07/09 08:24:56;;;;;;;5.53;4.20;;;;;;;28.11;49.59;98470.03;4994718;28;20207;-76
2023/07/09 08:27:23;;;;;;;5.78;4.32;;;;;;;28.29;49.98;98470.81;4994397;28;20234;-76
2023/07/09 08:29:49;;;;;;;6.45;4.55;;;;;;;28.17;48.48;98468.75;4994284;28;20211;-77
2023/07/09 08:32:16;;;;;;;5.50;4.38;;;;;;;28.32;48.81;98475.66;4994227;28;20211;-77
2023/07/09 08:34:43;;;;;;;5.28;4.38;;;;;;;28.54;48.60;98480.97;4994288;28;20215;-76
2023/07/09 08:37:10;;;;;;;4.53;4.13;;;;;;;28.67;48.21;98478.03;4993886;28;20233;-76
2023/07/09 08:39:36;;;;;;;5.30;4.53;;;;;;;28.63;47.47;98477.09;4993665;28;20642;-77
2023/07/09 08:42:13;;;;;;;7.13;4.25;;;;;;;28.76;47.09;98480.75;4994084;28;20218;-77
2023/07/09 08:45:12;;;;;;;4.70;3.83;;;;;;;28.82;46.56;98473.97;4994073;28;20198;-77
2023/07/09 08:48:06;;;;;;;4.72;3.75;;;;;;;28.97;43.97;98473.44;4993875;28;20730;-76
2023/07/09 08:50:50;;;;;;;4.75;4.03;;;;;;;28.80;45.37;98468.03;4991312;28;20203;-76
2023/07/09 08:53:27;;;;;;;5.00;3.95;;;;;;;28.66;45.33;98476.44;4993875;28;20214;-76
2023/07/09 08:55:53;;;;;;;4.65;4.25;;;;;;;28.61;45.12;98478.53;4992841;28;20235;-76
2023/07/09 08:58:32;;;;;;;6.13;4.38;;;;;;;28.85;45.35;98467.84;4993674;28;20678;-76
2023/07/09 09:01:02;;;;;;;6.63;4.03;;;;;;;29.23;43.85;98464.03;4992600;28;20223;-76
2023/07/09 09:03:34;;;;;;;5.97;4.18;;;;;;;29.41;43.78;98475.69;4993426;28;20188;-77
2023/07/09 09:06:00;;;;;;;9.52;4.28;;;;;;;29.55;43.27;98471.56;4993590;28;20231;-77
2023/07/09 09:08:56;;;;;;;4.63;4.10;;;;;;;29.77;42.80;98473.22;4993824;28;20207;-77
2023/07/09 09:11:32;;;;;;;5.82;4.35;;;;;;;30.00;41.74;98472.59;4994099;28;20202;-77
2023/07/09 09:14:04;;;;;;;5.10;3.75;;;;;;;29.94;42.25;98476.63;4996723;28;20221;-78
2023/07/09 09:16:33;;;;;;;6.53;4.20;;;;;;;29.86;43.00;98474.78;5001508;28;20227;-79
2023/07/09 09:19:01;;;;;;;6.95;4.50;;;;;;;29.98;41.61;98474.06;4998226;28;20208;-78
2023/07/09 09:21:35;;;;;;;4.25;3.85;;;;;;;30.15;42.28;98468.44;4994398;28;20216;-79
2023/07/09 09:24:33;;;;;;;4.50;4.10;;;;;;;30.34;43.17;98479.75;4997458;28;20200;-78
2023/07/09 09:27:00;;;;;;;6.15;4.20;;;;;;;30.22;42.46;98477.75;4972534;28;20231;-78
2023/07/09 09:29:27;;;;;;;6.15;4.57;;;;;;;30.63;42.11;98474.13;5001474;28;20242;-79
2023/07/09 09:31:58;;;;;;;6.40;4.50;;;;;;;30.50;43.19;98467.78;5001040;28;20204;-78
2023/07/09 09:34:30;;;;;;;4.68;4.28;;;;;;;30.71;41.42;98471.31;5001877;28;20218;-79
2023/07/09 09:36:59;;;;;;;4.82;4.38;;;;;;;30.78;41.33;98470.75;4998927;28;20231;-78
2023/07/09 09:39:27;;;;;;;4.55;4.15;;;;;;;30.77;42.08;98461.72;4994576;28;20207;-78
2023/07/09 09:41:58;;;;;;;5.47;4.35;;;;;;;30.90;41.49;98466.09;4997399;28;20211;-79
2023/07/09 09:44:28;;;;;;;4.78;3.85;;;;;;;30.56;40.59;98473.88;4999776;28;20611;-79
2023/07/09 09:46:58;;;;;;;5.68;4.38;;;;;;;30.50;39.94;98475.22;4999023;28;20231;-79
2023/07/09 09:49:24;;;;;;;4.85;4.30;;;;;;;30.67;40.04;98481.38;5000732;28;20207;-79
2023/07/09 09:51:51;;;;;;;6.75;4.32;;;;;;;30.54;40.70;98471.47;4981062;28;20204;-78
2023/07/09 09:54:21;;;;;;;4.70;3.88;;;;;;;30.74;40.37;98476.13;4986561;28;20215;-79
2023/07/09 09:56:50;;;;;;;5.10;4.20;;;;;;;30.96;40.42;98470.22;4997833;28;20231;-78
2023/07/09 09:59:31;;;;;;;6.57;4.40;;;;;;;31.57;38.71;98469.09;4999459;28;20555;-78
2023/07/09 10:02:03;;;;;;;6.47;4.07;;;;;;;31.79;38.51;98457.66;4999017;28;20643;-78
2023/07/09 10:04:30;;;;;;;4.47;4.05;;;;;;;31.95;36.80;98452.22;4999122;28;20307;-78
2023/07/09 10:07:06;;;;;;;4.53;3.70;;;;;;;31.80;35.86;98456.53;4999859;28;20245;-79
2023/07/09 10:09:47;;;;;;;5.00;3.78;;;;;;;31.27;36.36;98451.28;4996568;28;20199;-78
2023/07/09 10:12:25;;;;;;;4.40;4.00;;;;;;;31.58;35.03;98451.47;4984976;28;20200;-76
2023/07/09 10:14:59;;;;;;;4.10;3.70;;;;;;;31.79;34.61;98445.88;4979360;28;20234;-76
2023/07/09 10:17:43;;;;;;;4.18;3.72;;;;;;;32.01;34.11;98446.13;4998435;28;20239;-76
2023/07/09 10:20:18;;;;;;;3.50;3.20;;;;;;;31.92;32.01;98439.97;4997975;28;20196;-79
2023/07/09 10:23:30;;;;;;;4.63;3.35;;;;;;;32.27;30.34;98437.44;4998742;28;20191;-76
2023/07/09 10:26:12;;;;;;;5.32;3.10;;;;;;;32.30;30.76;98434.84;4994564;28;20230;-76
2023/07/09 10:28:39;;;;;;;3.60;3.30;;;;;;;32.68;30.58;98435.06;4999423;28;20195;-79
2023/07/09 10:31:32;;;;;;;5.03;3.88;;;;;;;32.77;30.64;98434.88;4999824;28;20670;-79
2023/07/09 10:34:01;;;;;;;4.93;3.33;;;;;;;32.55;30.72;98430.78;5011881;28;20244;-77
2023/07/09 10:36:37;;;;;;;6.63;3.40;;;;;;;32.69;30.25;98430.38;5015752;28;20222;-75
2023/07/09 10:39:15;;;;;;;4.10;3.60;;;;;;;32.97;29.36;98428.38;5015763;28;20194;-77
2023/07/09 10:41:43;;;;;;;5.50;3.45;;;;;;;32.93;29.45;98424.72;5014652;28;20286;-75
2023/07/09 10:44:39;;;;;;;3.85;3.45;;;;;;;32.89;29.38;98424.66;5015540;28;20689;-74
2023/07/09 10:47:29;;;;;;;4.22;3.35;;;;;;;32.94;28.64;98427.13;5014710;28;20229;-77
2023/07/09 10:49:57;;;;;;;5.45;3.38;;;;;;;33.10;29.13;98425.16;5007659;28;20207;-79
2023/07/09 10:52:30;;;;;;;5.03;3.47;;;;;;;33.18;30.00;98410.41;4991284;28;20200;-78
2023/07/09 10:55:22;;;;;;;5.10;3.63;;;;;;;33.07;28.49;98414.88;4977831;28;20235;-76
2023/07/09 10:58:12;;;;;;;5.45;3.40;;;;;;;33.02;29.49;98409.59;4998473;28;20239;-79
2023/07/09 11:00:41;;;;;;;4.93;3.33;;;;;;;33.23;29.24;98401.84;4998361;28;20262;-78
2023/07/09 11:03:28;;;;;;;5.20;3.55;;;;;;;33.42;28.54;98409.41;4998277;28;20261;-78
2023/07/09 11:05:55;;;;;;;4.75;3.63;;;;;;;33.53;28.44;98404.94;4997918;28;20219;-77
2023/07/09 11:08:30;;;;;;;6.68;3.72;;;;;;;33.20;27.82;98399.78;4997736;28;20655;-77
2023/07/09 11:11:02;;;;;;;3.90;3.45;;;;;;;32.59;28.30;98397.84;4993681;28;20192;-77
2023/07/09 11:13:37;;;;;;;4.85;3.65;;;;;;;33.17;28.73;98397.78;4997140;28;20211;-77
2023/07/09 11:16:06;;;;;;;3.97;3.42;;;;;;;33.11;28.21;98404.69;4997046;28;20222;-77
2023/07/09 11:18:34;;;;;;;8.23;3.58;;;;;;;33.19;27.45;98391.91;4996558;28;20199;-77
2023/07/09 11:21:18;;;;;;;4.65;3.83;;;;;;;33.29;26.36;98391.34;4996650;28;20199;-77
2023/07/09 11:23:50;;;;;;;5.78;4.00;;;;;;;33.23;26.54;98393.59;4996253;28;20207;-77
2023/07/09 11:26:27;;;;;;;6.70;4.13;;;;;;;33.07;26.63;98401.09;4991770;28;20330;-77
2023/07/09 11:28:56;;;;;;;5.57;3.75;;;;;;;33.25;27.47;98385.78;4994086;28;20199;-77
2023/07/09 11:31:46;;;;;;;6.30;3.83;;;;;;;33.40;27.42;98389.66;4989922;28;20568;-77
2023/07/09 11:34:16;;;;;;;5.03;3.85;;;;;;;33.22;28.04;98388.41;4994302;28;20302;-77
2023/07/09 11:36:56;;;;;;;4.22;3.80;;;;;;;33.44;26.11;98396.06;4994642;28;20231;-77
2023/07/09 11:39:48;;;;;;;5.78;3.92;;;;;;;33.51;25.75;98388.75;4994654;28;20203;-77
2023/07/09 11:42:30;;;;;;;7.22;3.78;;;;;;;33.49;26.66;98384.75;4994335;28;20722;-77
2023/07/09 11:45:12;;;;;;;7.47;3.75;;;;;;;33.36;26.40;98383.25;4993175;28;20195;-77
2023/07/09 11:47:45;;;;;;;7.32;3.70;;;;;;;33.39;25.24;98377.84;4993747;28;20317;-77